Ukkel, België

3:55 PM CEST op 28 mei 2015 (GMT +0200)
Beauvechain Air Base | | Change Station
CLOSE
Current Station
Luchthaven
Location: Beauvechain,
Geometrische hoogte: 417 ft
Nabije weerstations

Hoogte 417 ft 50.76 °N, 4.77 °E | Updated 30 minutes ago

Mostly Cloudy
Merendeels bewolkt
63 °F
Voelt als 63 °F
N
21
Wind Variabel Wind van WZW

Vandaag
Hoog -- | Laag -- °F
--% Kans op neerslag
Gisteren
Hoog -- | Laag -- °F
Precip. -- inches
5:38 AM 9:41 PM
Wassende maan, 76% visible
Druk 29.95 inches
Zicht 6.2 mijlen
Wolken Gering 2700 ft
Licht bewolkt 6000 ft
Merendeels bewolkt 25000 ft
Dauwpunt 46 °F
Vochtigheid 55%
Neerslag 0.00 inches
Dikte sneeuw Niet beschikbaar.
UV 4 van de 12
Pollen Niet beschikbaar.
Luchtkwaliteit Niet beschikbaar.
Flu Activity Niet beschikbaar.
METAR EBBE 281325Z 24018KT 9999 FEW027 SCT060 BKN250 17/08 Q1014 BLU BLU

More Conditions Fewer Conditions

Druk 29.95 inches
Zicht 6.2 mijlen
Wolken Gering 2700 ft
Licht bewolkt 6000 ft
Merendeels bewolkt 25000 ft
Dauwpunt 46 °F
Vochtigheid 55%
Neerslag 0.00 inches
Dikte sneeuw Niet beschikbaar.
UV 4 van de 12
Pollen Niet beschikbaar.
Luchtkwaliteit Niet beschikbaar.
Flu Activity Niet beschikbaar.
METAR EBBE 281325Z 24018KT 9999 FEW027 SCT060 BKN250 17/08 Q1014 BLU BLU

More Conditions Fewer Conditions

10-Day Weather Forecast

Almanac

Astronomie

May. 28, 2015 Opkomst Ondergang
Werkelijke tijd
Burgerlijke schemering
Nautische schemering
Astronomische schemering
Maan
Golflengte van het zichtbare licht
Daglengte
Tomorrow will be .
, % of the Moon is Illuminated

Extremen vandaag

Country Highs Country Lows

Community

WunderPhotos

Upload Photos

1,824,972 foto’s ge-upload!

WunderBlogs® & News

Nearby

Luchtkwaliteit

  Luchtkwaliteit LK-index Verontreinigende stof
Not available.

Dikte sneeuw

Station Depth Geometrische hoogte

Aardbevingen

Stad Distance Mag. Time & Date
Minimum magnitude displayed is 2.5.

Watertemperatuur langs de kust

Plaats Temperatuur

Stations

Nabije weerstations

Locatie station Temp. Gevoelstemperatuur Dauwpunt Vochtigheid Wind Precip. Hoogte Geactualiseerd Type